Time;durP1;ratioP1;P1;durP2;ratioP2;P2;SDS_P1;SDS_P2;PMS_P1;PMS_P2;Temp;Humidity;BMP_temperature;BMP_pressure;BME280_temperature;BME280_humidity;BME280_pressure;Samples;Min_cycle;Max_cycle;Signal;HPM_P1;HPM_P2
2022/10/19 00:00:46;;;;;;;20.53;14.73;;;15.00;99.90;;;;;;5060468;28;20944;-76
2022/10/19 00:03:14;;;;;;;17.70;14.40;;;15.00;99.90;;;;;;5058157;28;20469;-76
2022/10/19 00:05:41;;;;;;;14.23;12.80;;;15.10;99.90;;;;;;5060475;28;20449;-76
2022/10/19 00:08:08;;;;;;;18.40;16.37;;;15.10;99.90;;;;;;5060018;28;20451;-76
2022/10/19 00:10:40;;;;;;;17.47;15.53;;;15.10;99.90;;;;;;5063280;28;20444;-76
2022/10/19 00:13:07;;;;;;;16.33;14.73;;;15.10;99.90;;;;;;5059057;28;20602;-76
2022/10/19 00:15:37;;;;;;;15.77;14.37;;;15.00;99.90;;;;;;5052444;28;20488;-76
2022/10/19 00:18:04;;;;;;;19.07;13.67;;;15.00;99.90;;;;;;5060686;28;20511;-76
2022/10/19 00:20:32;;;;;;;15.80;14.23;;;15.00;99.90;;;;;;5064426;28;20580;-76
2022/10/19 00:22:59;;;;;;;15.00;13.57;;;15.00;99.90;;;;;;5063069;28;20466;-76
2022/10/19 00:25:26;;;;;;;23.20;13.43;;;14.90;99.90;;;;;;5057616;28;20466;-76
2022/10/19 00:27:54;;;;;;;16.77;15.27;;;14.90;99.90;;;;;;5062425;28;21111;-76
2022/10/19 00:30:21;;;;;;;16.27;14.47;;;15.00;99.90;;;;;;5069388;28;20455;-76
2022/10/19 00:32:48;;;;;;;17.07;15.43;;;15.00;99.90;;;;;;5052981;28;20455;-75
2022/10/19 00:35:15;;;;;;;18.73;16.03;;;15.00;99.90;;;;;;5061219;28;20841;-76
2022/10/19 00:37:42;;;;;;;18.90;15.97;;;15.00;99.90;;;;;;5062425;28;20517;-76
2022/10/19 00:40:10;;;;;;;17.03;15.23;;;15.00;99.90;;;;;;5063925;28;20865;-75
2022/10/19 00:42:37;;;;;;;16.27;14.50;;;15.00;99.90;;;;;;5052006;28;20940;-76
2022/10/19 00:45:12;;;;;;;15.53;14.03;;;14.90;99.90;;;;;;5054072;28;20474;-76
2022/10/19 00:47:40;;;;;;;21.90;16.07;;;14.80;99.90;;;;;;5061712;28;20465;-75
2022/10/19 00:50:08;;;;;;;19.00;16.07;;;14.70;99.90;;;;;;5063744;28;20557;-77
2022/10/19 00:52:35;;;;;;;19.03;17.00;;;14.60;99.90;;;;;;5056195;28;20490;-78
2022/10/19 00:55:02;;;;;;;18.20;16.30;;;14.60;99.90;;;;;;5060059;28;20454;-78
2022/10/19 00:57:31;;;;;;;18.47;16.17;;;14.70;99.90;;;;;;5059519;28;20498;-76
2022/10/19 01:00:00;;;;;;;18.47;16.43;;;14.70;99.90;;;;;;5062708;28;20460;-75
2022/10/19 01:02:29;;;;;;;21.03;17.00;;;14.80;99.90;;;;;;5060560;28;20456;-76
2022/10/19 01:04:56;;;;;;;16.87;15.13;;;14.80;99.90;;;;;;5059142;28;20528;-75
2022/10/19 01:07:25;;;;;;;19.20;17.30;;;14.80;99.90;;;;;;5058947;28;20445;-76
2022/10/19 01:09:52;;;;;;;21.83;16.87;;;14.80;99.90;;;;;;5065330;28;20449;-75
2022/10/19 01:12:44;;;;;;;18.40;16.60;;;14.80;99.90;;;;;;5072420;28;20451;-75
2022/10/19 01:15:21;;;;;;;17.87;16.17;;;14.80;99.90;;;;;;5061956;28;20875;-76
2022/10/19 01:18:00;;;;;;;21.67;17.70;;;14.70;99.90;;;;;;5073821;28;20572;-76
2022/10/19 01:20:50;;;;;;;19.57;17.53;;;14.70;99.90;;;;;;5071077;28;20485;-75
2022/10/19 01:24:11;;;;;;;18.80;16.80;;;14.80;99.90;;;;;;5074416;28;20813;-75
2022/10/19 01:27:15;;;;;;;17.13;15.53;;;14.70;99.90;;;;;;5063175;28;20488;-76
2022/10/19 01:30:05;;;;;;;18.23;16.30;;;14.70;99.90;;;;;;5062072;28;20511;-75
2022/10/19 01:32:39;;;;;;;24.10;18.07;;;14.60;99.90;;;;;;5058309;28;20947;-76
2022/10/19 01:35:11;;;;;;;19.73;16.23;;;14.60;99.90;;;;;;5060206;28;20572;-76
2022/10/19 01:37:46;;;;;;;24.20;17.47;;;14.40;99.90;;;;;;5061675;28;20481;-75
2022/10/19 01:40:19;;;;;;;19.03;17.23;;;14.40;99.90;;;;;;5063812;28;20451;-77
2022/10/19 01:42:55;;;;;;;20.90;18.47;;;14.40;99.90;;;;;;5064045;28;20572;-78
2022/10/19 01:45:29;;;;;;;20.70;18.63;;;14.40;99.90;;;;;;5064541;28;20495;-78
2022/10/19 01:48:02;;;;;;;20.43;17.73;;;14.30;99.90;;;;;;5066032;28;21024;-78
2022/10/19 01:50:36;;;;;;;20.27;18.17;;;14.30;99.90;;;;;;5066918;28;20888;-77
2022/10/19 01:53:04;;;;;;;13.30;11.93;;;14.30;99.90;;;;;;5061223;28;20485;-77
2022/10/19 01:55:33;;;;;;;11.30;10.20;;;14.20;99.90;;;;;;5059447;28;20492;-77
2022/10/19 01:58:05;;;;;;;8.47;7.60;;;14.10;99.90;;;;;;5059326;28;20504;-77
2022/10/19 02:00:37;;;;;;;7.03;6.10;;;14.10;99.90;;;;;;5059651;28;20962;-77
2022/10/19 02:03:05;;;;;;;6.27;5.70;;;14.10;99.90;;;;;;5059845;28;20444;-77
2022/10/19 02:05:33;;;;;;;5.67;4.80;;;14.20;99.90;;;;;;5058472;28;20572;-77
2022/10/19 02:08:05;;;;;;;3.07;2.83;;;14.10;99.90;;;;;;5063880;28;20466;-78
2022/10/19 02:10:35;;;;;;;2.93;2.50;;;14.10;99.90;;;;;;5066942;28;20813;-77
2022/10/19 02:13:04;;;;;;;2.70;2.20;;;14.10;99.90;;;;;;5064877;28;20455;-77
2022/10/19 02:15:36;;;;;;;1.40;1.30;;;14.10;99.90;;;;;;5050344;28;20570;-77
2022/10/19 02:18:05;;;;;;;2.07;1.87;;;14.10;99.90;;;;;;5065439;28;20522;-77
2022/10/19 02:20:34;;;;;;;1.80;1.70;;;14.10;99.90;;;;;;5056152;28;20463;-78
2022/10/19 02:23:03;;;;;;;6.40;1.40;;;14.00;99.90;;;;;;5063568;28;20513;-78
2022/10/19 02:25:30;;;;;;;1.83;1.70;;;14.10;99.90;;;;;;5064535;28;20939;-77
2022/10/19 02:27:57;;;;;;;3.60;1.67;;;14.00;99.90;;;;;;5058095;28;20527;-77
2022/10/19 02:30:25;;;;;;;1.70;1.50;;;14.10;99.90;;;;;;5059739;28;20861;-77
2022/10/19 02:32:53;;;;;;;1.80;1.70;;;14.00;99.90;;;;;;5061626;28;21031;-77
2022/10/19 02:35:21;;;;;;;1.83;1.60;;;14.00;99.90;;;;;;5065367;28;20455;-78
2022/10/19 02:37:48;;;;;;;1.50;1.13;;;13.90;99.90;;;;;;5054692;28;20588;-77
2022/10/19 02:40:15;;;;;;;1.83;1.40;;;13.90;99.90;;;;;;5071432;28;20510;-77
2022/10/19 02:42:47;;;;;;;4.63;4.13;;;13.90;99.90;;;;;;5058584;28;20993;-79
2022/10/19 02:45:19;;;;;;;1.50;1.30;;;13.90;99.90;;;;;;5062111;28;21032;-78
2022/10/19 02:47:51;;;;;;;2.20;1.60;;;13.90;99.90;;;;;;5064034;28;20846;-78
2022/10/19 02:50:22;;;;;;;2.07;1.30;;;13.90;99.90;;;;;;5062373;28;20529;-78
2022/10/19 02:52:49;;;;;;;1.80;1.70;;;13.90;99.90;;;;;;5059456;28;20443;-78
2022/10/19 02:55:16;;;;;;;2.60;2.40;;;13.90;99.90;;;;;;5063908;28;20459;-78
2022/10/19 02:57:43;;;;;;;2.80;1.90;;;13.90;99.90;;;;;;5062011;28;20493;-78
2022/10/19 03:00:11;;;;;;;1.87;1.77;;;14.00;99.90;;;;;;5060578;28;20471;-78
2022/10/19 03:02:39;;;;;;;2.10;1.77;;;14.00;99.90;;;;;;5056826;28;20520;-78
2022/10/19 03:05:06;;;;;;;2.20;1.90;;;13.90;99.90;;;;;;5062976;28;20531;-78
2022/10/19 03:07:35;;;;;;;1.83;1.50;;;13.80;99.90;;;;;;5065686;28;20451;-78
2022/10/19 03:10:02;;;;;;;3.30;3.10;;;13.80;99.90;;;;;;5062742;28;20538;-78
2022/10/19 03:12:29;;;;;;;1.77;1.67;;;13.80;99.90;;;;;;5058041;28;20452;-78
2022/10/19 03:14:55;;;;;;;2.00;1.90;;;13.80;99.90;;;;;;5065046;28;20916;-76
2022/10/19 03:17:22;;;;;;;6.30;1.93;;;13.90;99.90;;;;;;5068205;28;20490;-76
2022/10/19 03:19:49;;;;;;;1.67;1.57;;;13.80;99.90;;;;;;5063654;28;21121;-76
2022/10/19 03:22:16;;;;;;;1.77;1.63;;;13.80;99.90;;;;;;5063036;28;20873;-76
2022/10/19 03:24:45;;;;;;;5.70;2.30;;;13.80;99.90;;;;;;5063778;28;20476;-76
2022/10/19 03:27:12;;;;;;;1.63;1.53;;;13.80;99.90;;;;;;5061990;28;20955;-76
2022/10/19 03:29:39;;;;;;;8.77;2.40;;;13.80;99.90;;;;;;5059496;28;20494;-76
2022/10/19 03:32:06;;;;;;;1.27;1.17;;;13.80;99.90;;;;;;5059123;28;21025;-76
2022/10/19 03:34:33;;;;;;;1.90;1.80;;;13.80;99.90;;;;;;5062750;28;20454;-76
2022/10/19 03:37:00;;;;;;;3.20;1.40;;;13.80;99.90;;;;;;5058694;28;20483;-76
2022/10/19 03:39:26;;;;;;;1.70;1.33;;;13.90;99.90;;;;;;5064008;28;20510;-76
2022/10/19 03:41:55;;;;;;;1.47;1.37;;;13.80;99.90;;;;;;5060118;28;21020;-76
2022/10/19 03:44:22;;;;;;;1.70;1.60;;;13.90;99.90;;;;;;5058061;28;20453;-76
2022/10/19 03:46:49;;;;;;;1.63;1.53;;;13.90;99.90;;;;;;5061277;28;20481;-76
2022/10/19 03:49:16;;;;;;;1.40;1.30;;;13.90;99.90;;;;;;5064729;28;20478;-76
2022/10/19 03:51:43;;;;;;;4.07;2.70;;;13.80;99.90;;;;;;5061773;28;20528;-76
2022/10/19 03:54:14;;;;;;;3.80;2.30;;;13.90;99.90;;;;;;5064538;28;20977;-77
2022/10/19 03:56:42;;;;;;;2.30;2.10;;;13.80;99.90;;;;;;5057776;28;20462;-76
2022/10/19 03:59:14;;;;;;;3.77;1.87;;;13.80;99.90;;;;;;5058446;28;21249;-76
2022/10/19 04:01:44;;;;;;;4.90;2.10;;;13.90;99.90;;;;;;5055213;28;20460;-76
2022/10/19 04:04:13;;;;;;;2.13;1.67;;;13.80;99.90;;;;;;5064111;28;21123;-76
2022/10/19 04:06:42;;;;;;;2.20;1.90;;;13.90;99.90;;;;;;5058708;28;20457;-76
2022/10/19 04:09:12;;;;;;;1.80;1.70;;;13.80;99.90;;;;;;5064770;28;20512;-76
2022/10/19 04:11:40;;;;;;;3.23;2.80;;;13.80;99.90;;;;;;5064250;28;20476;-76
2022/10/19 04:14:10;;;;;;;4.23;3.17;;;13.80;99.90;;;;;;5049055;28;20975;-76
2022/10/19 04:16:37;;;;;;;5.37;2.60;;;13.80;99.90;;;;;;5059010;28;20472;-76
2022/10/19 04:19:04;;;;;;;3.27;2.10;;;13.80;99.90;;;;;;5051166;28;20510;-76
2022/10/19 04:21:33;;;;;;;3.30;3.10;;;13.80;99.90;;;;;;5043620;28;20562;-76
2022/10/19 04:24:01;;;;;;;3.23;2.60;;;13.80;99.90;;;;;;5049900;28;20525;-76
2022/10/19 04:26:29;;;;;;;3.47;3.27;;;13.80;99.90;;;;;;5058009;28;20466;-76
2022/10/19 04:28:57;;;;;;;2.33;2.23;;;13.80;99.90;;;;;;5059040;28;20514;-75
2022/10/19 04:31:26;;;;;;;3.27;3.03;;;13.80;99.90;;;;;;5058715;28;20947;-75
2022/10/19 04:33:53;;;;;;;6.20;2.50;;;13.70;99.90;;;;;;5062736;28;20476;-75
2022/10/19 04:36:20;;;;;;;2.93;2.73;;;13.80;99.90;;;;;;5063382;28;20543;-75
2022/10/19 04:38:47;;;;;;;2.67;2.43;;;13.80;99.90;;;;;;5054911;28;20525;-75
2022/10/19 04:41:16;;;;;;;3.50;2.60;;;13.80;99.90;;;;;;5061942;28;20542;-74
2022/10/19 04:43:45;;;;;;;3.93;2.77;;;13.80;99.90;;;;;;5066041;28;20518;-75
2022/10/19 04:46:13;;;;;;;2.50;2.30;;;13.90;99.90;;;;;;5059196;28;20473;-75
2022/10/19 04:48:43;;;;;;;2.60;2.40;;;13.80;99.90;;;;;;5067796;28;20443;-75
2022/10/19 04:51:11;;;;;;;2.27;2.00;;;13.80;99.90;;;;;;5067961;28;20501;-75
2022/10/19 04:53:39;;;;;;;1.93;1.83;;;13.90;99.90;;;;;;5065072;28;20454;-75
2022/10/19 04:56:09;;;;;;;1.80;1.70;;;13.80;99.90;;;;;;5061440;28;20517;-75
2022/10/19 04:58:36;;;;;;;1.27;1.17;;;13.80;99.90;;;;;;5066522;28;20641;-75
2022/10/19 05:01:08;;;;;;;5.50;1.87;;;13.60;99.90;;;;;;5055628;28;20470;-75
2022/10/19 05:03:35;;;;;;;1.93;1.67;;;13.60;99.90;;;;;;5064230;28;20470;-75
2022/10/19 05:06:04;;;;;;;2.03;1.60;;;13.50;99.90;;;;;;5064247;28;20480;-76
2022/10/19 05:08:31;;;;;;;3.30;2.10;;;13.50;99.90;;;;;;5065177;28;20480;-75
2022/10/19 05:11:01;;;;;;;3.47;2.97;;;13.60;99.90;;;;;;5061103;28;20463;-75
2022/10/19 05:13:28;;;;;;;3.80;3.07;;;13.60;99.90;;;;;;5064393;28;20962;-75
2022/10/19 05:15:56;;;;;;;2.60;2.40;;;13.60;99.90;;;;;;5064186;28;20553;-75
2022/10/19 05:18:23;;;;;;;3.53;2.37;;;13.70;99.90;;;;;;5067013;28;20576;-75
2022/10/19 05:20:50;;;;;;;3.07;2.87;;;13.80;99.90;;;;;;5066692;28;20463;-75
2022/10/19 05:23:19;;;;;;;4.53;3.00;;;13.80;99.90;;;;;;5071730;28;20452;-75
2022/10/19 05:25:45;;;;;;;2.97;2.73;;;13.80;99.90;;;;;;5059943;28;20549;-75
2022/10/19 05:28:12;;;;;;;2.07;1.97;;;13.80;99.90;;;;;;5059105;28;20998;-76
2022/10/19 05:30:39;;;;;;;2.90;2.70;;;13.90;99.90;;;;;;5065236;28;20545;-76
2022/10/19 05:33:06;;;;;;;4.93;3.00;;;14.00;99.90;;;;;;5064636;28;20845;-76
2022/10/19 05:35:33;;;;;;;3.13;2.93;;;14.00;99.90;;;;;;5066247;28;20506;-76
2022/10/19 05:38:00;;;;;;;3.60;3.30;;;14.00;99.90;;;;;;5060055;28;20593;-76
2022/10/19 05:40:28;;;;;;;3.00;2.70;;;14.00;99.90;;;;;;5061658;28;20496;-76
2022/10/19 05:42:55;;;;;;;3.47;3.20;;;14.00;99.90;;;;;;5053618;28;20635;-76
2022/10/19 05:45:22;;;;;;;3.57;3.30;;;14.00;99.90;;;;;;5054283;28;20987;-76
2022/10/19 05:47:49;;;;;;;3.00;2.80;;;14.00;99.90;;;;;;5060552;28;20523;-76
2022/10/19 05:50:16;;;;;;;3.50;3.27;;;14.00;99.90;;;;;;5066415;28;21009;-76
2022/10/19 05:52:43;;;;;;;3.43;3.13;;;13.90;99.90;;;;;;5065397;28;20546;-76
2022/10/19 05:55:10;;;;;;;3.63;2.57;;;14.00;99.90;;;;;;5065108;28;20550;-76
2022/10/19 05:57:38;;;;;;;5.87;4.13;;;14.00;99.90;;;;;;5055377;28;20858;-76
2022/10/19 06:00:06;;;;;;;3.77;3.47;;;14.10;99.90;;;;;;5065251;28;20491;-76
2022/10/19 06:02:33;;;;;;;3.90;3.60;;;14.10;99.90;;;;;;5061516;28;20810;-76
2022/10/19 06:05:00;;;;;;;3.90;3.37;;;14.10;99.90;;;;;;5059051;28;20558;-76
2022/10/19 06:07:26;;;;;;;3.20;3.00;;;14.10;99.90;;;;;;5066280;28;21247;-76
2022/10/19 06:09:53;;;;;;;2.70;2.50;;;14.00;99.90;;;;;;5064772;28;20507;-76
2022/10/19 06:12:20;;;;;;;3.97;3.57;;;14.00;99.90;;;;;;5052207;28;20469;-76
2022/10/19 06:14:50;;;;;;;3.83;3.53;;;14.10;99.90;;;;;;5061923;28;20914;-75
2022/10/19 06:17:17;;;;;;;7.23;4.83;;;14.20;99.90;;;;;;5062643;28;20497;-76
2022/10/19 06:19:44;;;;;;;3.63;3.33;;;14.10;99.90;;;;;;5066749;28;20616;-76
2022/10/19 06:22:11;;;;;;;3.07;2.80;;;14.10;99.90;;;;;;5051217;28;20552;-76
2022/10/19 06:24:38;;;;;;;3.87;2.80;;;14.10;99.90;;;;;;5059425;28;20534;-76
2022/10/19 06:27:05;;;;;;;4.87;4.13;;;14.10;99.90;;;;;;5052843;28;21160;-76
2022/10/19 06:29:32;;;;;;;5.73;3.37;;;14.20;99.90;;;;;;5057675;28;20486;-76
2022/10/19 06:32:01;;;;;;;3.83;3.53;;;14.20;99.90;;;;;;5058626;28;20495;-76
2022/10/19 06:34:27;;;;;;;3.90;3.00;;;14.30;99.90;;;;;;5057900;28;20467;-76
2022/10/19 06:36:54;;;;;;;4.00;3.60;;;14.30;99.90;;;;;;5056337;28;21025;-76
2022/10/19 06:39:21;;;;;;;3.27;2.97;;;14.30;99.90;;;;;;5062746;28;20495;-76
2022/10/19 06:41:48;;;;;;;6.10;3.07;;;14.40;99.90;;;;;;5061227;28;20467;-76
2022/10/19 06:44:15;;;;;;;3.20;2.27;;;14.40;99.90;;;;;;5061941;28;20456;-76
2022/10/19 06:46:42;;;;;;;2.77;2.57;;;14.40;99.90;;;;;;5059748;28;20473;-76
2022/10/19 06:49:13;;;;;;;9.50;4.33;;;14.50;99.90;;;;;;5053197;28;20458;-76
2022/10/19 06:51:40;;;;;;;3.00;2.80;;;14.70;99.90;;;;;;5059523;28;20457;-76
2022/10/19 06:54:08;;;;;;;4.07;3.70;;;14.80;99.90;;;;;;5060813;28;20922;-76
2022/10/19 06:56:35;;;;;;;3.53;2.97;;;14.90;99.90;;;;;;5063460;28;20493;-76
2022/10/19 06:59:02;;;;;;;3.43;2.90;;;14.90;99.90;;;;;;5058540;28;20477;-76
2022/10/19 07:01:29;;;;;;;4.03;3.07;;;15.00;99.90;;;;;;5057453;28;21304;-76
2022/10/19 07:03:56;;;;;;;3.80;3.60;;;14.90;99.90;;;;;;5052827;28;20544;-76
2022/10/19 07:06:26;;;;;;;4.73;3.33;;;14.90;99.90;;;;;;5056241;28;20553;-76
2022/10/19 07:08:53;;;;;;;4.13;3.33;;;15.00;99.90;;;;;;5062790;28;20535;-76
2022/10/19 07:11:22;;;;;;;4.03;3.07;;;15.10;99.90;;;;;;5062960;28;20470;-76
2022/10/19 07:13:49;;;;;;;3.13;2.93;;;15.20;99.90;;;;;;5061935;28;20966;-76
2022/10/19 07:16:18;;;;;;;3.07;2.80;;;15.40;99.90;;;;;;5061463;28;20526;-77
2022/10/19 07:18:45;;;;;;;2.57;2.37;;;15.30;99.90;;;;;;5057730;28;20982;-76
2022/10/19 07:21:15;;;;;;;3.20;2.80;;;15.50;99.90;;;;;;5056261;28;20544;-76
2022/10/19 07:23:46;;;;;;;3.93;2.70;;;15.60;99.90;;;;;;5056886;28;20539;-76
2022/10/19 07:26:14;;;;;;;3.90;3.50;;;15.60;99.90;;;;;;5051774;28;20471;-76
2022/10/19 07:28:44;;;;;;;5.37;2.63;;;15.50;99.90;;;;;;5066114;28;20559;-76
2022/10/19 07:31:13;;;;;;;3.97;2.93;;;15.40;99.90;;;;;;5065448;28;20490;-77
2022/10/19 07:33:40;;;;;;;3.57;3.27;;;15.50;99.90;;;;;;5061715;28;20561;-77
2022/10/19 07:36:09;;;;;;;4.47;4.10;;;15.50;99.90;;;;;;5052004;28;20959;-77
2022/10/19 07:38:37;;;;;;;4.37;3.97;;;15.50;99.90;;;;;;5060492;28;20519;-77
2022/10/19 07:41:07;;;;;;;3.80;3.23;;;15.40;99.90;;;;;;5058001;28;20495;-77
2022/10/19 07:43:34;;;;;;;4.50;3.67;;;15.30;99.90;;;;;;5047930;28;20553;-77
2022/10/19 07:46:03;;;;;;;4.10;3.10;;;15.40;99.90;;;;;;5056810;28;20994;-77
2022/10/19 07:48:30;;;;;;;3.40;3.20;;;15.40;99.90;;;;;;5059742;28;20541;-77
2022/10/19 07:50:57;;;;;;;4.53;3.83;;;15.40;99.90;;;;;;5055613;28;20472;-77
2022/10/19 07:53:24;;;;;;;3.20;2.90;;;15.30;99.90;;;;;;5061107;28;20521;-77
2022/10/19 07:55:51;;;;;;;3.27;3.00;;;15.10;99.90;;;;;;5062177;28;20488;-77
2022/10/19 07:58:20;;;;;;;3.73;3.50;;;15.10;99.90;;;;;;5058505;28;20442;-77
2022/10/19 08:00:47;;;;;;;4.83;3.73;;;15.20;99.90;;;;;;5056309;28;20489;-77
2022/10/19 08:03:14;;;;;;;9.70;3.80;;;15.20;99.90;;;;;;5056710;28;20536;-77
2022/10/19 08:05:41;;;;;;;4.97;4.50;;;15.20;99.90;;;;;;5058340;28;20457;-77
2022/10/19 08:08:08;;;;;;;4.03;3.20;;;15.40;99.90;;;;;;5045227;28;21001;-77
2022/10/19 08:10:35;;;;;;;4.10;3.67;;;15.50;99.90;;;;;;5050266;28;20588;-77
2022/10/19 08:13:01;;;;;;;5.43;3.80;;;15.60;99.90;;;;;;5054249;28;20542;-77
2022/10/19 08:15:31;;;;;;;8.13;6.07;;;15.60;99.90;;;;;;5049390;28;20555;-77
2022/10/19 08:17:58;;;;;;;3.00;2.80;;;15.90;99.90;;;;;;5049855;28;20483;-77
2022/10/19 08:20:25;;;;;;;3.90;1.87;;;16.00;99.90;;;;;;5052982;28;20510;-77
2022/10/19 08:22:52;;;;;;;9.67;2.83;;;16.00;99.90;;;;;;5055725;28;20521;-77
2022/10/19 08:25:20;;;;;;;9.40;2.73;;;16.10;99.90;;;;;;5062329;28;20494;-77
2022/10/19 08:27:46;;;;;;;2.67;2.17;;;16.00;99.90;;;;;;5063618;28;21129;-77
2022/10/19 08:30:13;;;;;;;4.70;2.03;;;16.10;99.90;;;;;;5061179;28;20464;-77
2022/10/19 08:32:42;;;;;;;6.00;2.57;;;16.20;99.90;;;;;;5059494;28;20475;-77
2022/10/19 08:35:09;;;;;;;2.13;1.30;;;16.20;99.90;;;;;;5048238;28;20467;-77
2022/10/19 08:37:36;;;;;;;2.13;1.93;;;16.20;99.90;;;;;;5053491;28;20495;-77
2022/10/19 08:40:03;;;;;;;3.70;2.47;;;16.20;99.90;;;;;;5049124;28;20515;-77
2022/10/19 08:42:46;;;;;;;2.00;1.80;;;16.20;99.90;;;;;;5050649;28;21072;-77
2022/10/19 08:45:33;;;;;;;3.27;2.13;;;16.10;99.90;;;;;;5050038;28;21033;-77
2022/10/19 08:48:21;;;;;;;1.80;1.70;;;16.30;99.90;;;;;;5057601;28;20495;-77
2022/10/19 08:50:48;;;;;;;2.03;1.53;;;16.40;99.90;;;;;;5065559;28;20995;-77
2022/10/19 08:53:21;;;;;;;8.30;1.53;;;16.50;99.90;;;;;;5063502;28;20487;-77
2022/10/19 08:55:54;;;;;;;2.50;1.10;;;16.70;99.90;;;;;;5064087;28;20631;-77
2022/10/19 08:58:31;;;;;;;1.50;1.40;;;16.80;99.90;;;;;;5065145;28;20889;-77
2022/10/19 09:01:05;;;;;;;2.50;1.70;;;17.20;99.90;;;;;;5056978;28;20560;-78
2022/10/19 09:03:41;;;;;;;1.83;1.60;;;17.30;99.90;;;;;;5060702;28;20467;-78
2022/10/19 09:06:19;;;;;;;4.67;2.03;;;17.30;99.90;;;;;;5059119;28;20462;-78
2022/10/19 09:08:47;;;;;;;6.77;2.07;;;17.10;99.90;;;;;;5055177;28;20466;-78
2022/10/19 09:11:16;;;;;;;2.17;2.07;;;17.00;99.90;;;;;;5060309;28;20498;-77
2022/10/19 09:13:45;;;;;;;4.47;1.83;;;17.00;99.90;;;;;;5066130;28;20920;-77
2022/10/19 09:16:15;;;;;;;2.90;2.13;;;17.00;99.90;;;;;;5056164;28;20471;-78
2022/10/19 09:18:45;;;;;;;2.17;1.27;;;16.90;99.90;;;;;;5056229;28;20464;-78
2022/10/19 09:21:17;;;;;;;2.27;2.17;;;17.00;99.90;;;;;;5055164;28;20962;-78
2022/10/19 09:23:48;;;;;;;1.30;1.20;;;16.90;99.90;;;;;;5066545;28;20491;-77
2022/10/19 09:26:18;;;;;;;2.27;1.90;;;16.70;99.90;;;;;;5051571;28;21162;-77
2022/10/19 09:28:49;;;;;;;2.00;1.90;;;17.00;99.90;;;;;;5058484;28;20496;-78
2022/10/19 09:31:24;;;;;;;2.00;1.90;;;17.20;99.90;;;;;;5070211;28;20478;-77
2022/10/19 09:33:58;;;;;;;1.77;1.67;;;17.40;99.90;;;;;;5067807;28;20512;-78
2022/10/19 09:36:34;;;;;;;2.43;1.77;;;17.40;99.90;;;;;;5067335;28;20532;-77
2022/10/19 09:39:02;;;;;;;6.93;2.00;;;17.50;99.90;;;;;;5060123;28;20808;-77
2022/10/19 09:41:30;;;;;;;4.43;1.97;;;17.50;99.90;;;;;;5060355;28;20471;-77
2022/10/19 09:43:57;;;;;;;3.23;1.70;;;17.40;99.90;;;;;;5059355;28;20564;-77
2022/10/19 09:46:43;;;;;;;2.20;1.73;;;17.70;99.90;;;;;;5059152;28;20554;-78
2022/10/19 09:49:12;;;;;;;2.07;1.47;;;17.80;99.90;;;;;;5063515;28;20460;-77
2022/10/19 09:51:44;;;;;;;1.40;1.30;;;17.80;99.90;;;;;;5061371;28;20541;-77
2022/10/19 09:54:25;;;;;;;1.73;1.53;;;17.80;99.90;;;;;;5061954;28;20552;-77
2022/10/19 09:56:56;;;;;;;1.10;1.00;;;17.80;99.90;;;;;;5066858;28;20898;-77
2022/10/19 09:59:28;;;;;;;1.30;1.20;;;17.80;99.90;;;;;;5064351;28;20483;-77
2022/10/19 10:02:15;;;;;;;1.70;1.03;;;17.70;99.90;;;;;;5056670;28;20543;-77
2022/10/19 10:04:46;;;;;;;1.70;1.33;;;17.80;99.90;;;;;;5063454;28;20460;-77
2022/10/19 10:07:16;;;;;;;2.90;1.20;;;17.80;99.90;;;;;;5065405;28;20501;-78
2022/10/19 10:09:44;;;;;;;1.80;1.20;;;17.80;99.90;;;;;;5058239;28;20470;-78
2022/10/19 10:12:15;;;;;;;3.23;1.70;;;18.00;99.90;;;;;;5062767;28;20534;-78
2022/10/19 10:14:44;;;;;;;11.77;2.27;;;17.80;99.90;;;;;;5062481;28;20467;-78
2022/10/19 10:17:16;;;;;;;5.07;3.93;;;17.60;99.90;;;;;;5067142;28;20451;-78
2022/10/19 10:20:05;;;;;;;7.53;5.43;;;17.60;99.90;;;;;;5054489;28;20489;-78
2022/10/19 10:22:35;;;;;;;6.07;5.17;;;17.40;99.90;;;;;;5065169;28;20440;-78
2022/10/19 10:25:10;;;;;;;9.23;5.90;;;17.50;99.90;;;;;;5061746;28;20465;-78
2022/10/19 10:27:39;;;;;;;9.53;6.40;;;17.40;99.90;;;;;;5064407;28;21013;-78
2022/10/19 10:30:07;;;;;;;8.90;7.20;;;17.40;99.90;;;;;;5057632;28;21009;-78
2022/10/19 10:32:37;;;;;;;8.90;6.77;;;17.40;99.90;;;;;;5066198;28;20435;-78
2022/10/19 10:35:16;;;;;;;6.53;5.67;;;17.30;99.90;;;;;;5058454;28;20488;-78
2022/10/19 10:37:45;;;;;;;9.30;7.17;;;17.20;99.90;;;;;;5062266;28;20463;-77
2022/10/19 10:40:21;;;;;;;6.43;5.57;;;17.20;99.90;;;;;;5056703;28;20572;-78
2022/10/19 10:42:50;;;;;;;7.30;6.03;;;17.50;99.90;;;;;;5065390;28;20527;-78
2022/10/19 10:45:20;;;;;;;16.90;7.30;;;17.80;99.90;;;;;;5053734;28;21091;-78
2022/10/19 10:47:48;;;;;;;9.03;8.07;;;18.10;99.90;;;;;;5063578;28;20544;-78
2022/10/19 10:50:23;;;;;;;7.20;6.10;;;18.30;99.90;;;;;;5062234;28;20467;-78
2022/10/19 10:52:58;;;;;;;8.10;6.47;;;18.60;99.90;;;;;;5065209;28;21007;-78
2022/10/19 10:55:26;;;;;;;6.50;5.60;;;18.60;99.90;;;;;;5061967;28;20529;-77
2022/10/19 10:58:04;;;;;;;5.57;4.97;;;18.80;99.90;;;;;;5060550;28;20464;-77
2022/10/19 11:00:34;;;;;;;5.80;4.67;;;18.80;99.90;;;;;;5061150;28;20507;-77
2022/10/19 11:03:08;;;;;;;6.77;6.10;;;18.70;99.90;;;;;;5060605;28;20453;-77
2022/10/19 11:05:43;;;;;;;6.87;5.30;;;19.00;99.90;;;;;;5062952;28;20882;-77
2022/10/19 11:08:20;;;;;;;7.53;5.30;;;19.00;99.90;;;;;;5056303;28;20540;-77
2022/10/19 11:10:53;;;;;;;6.23;4.70;;;18.90;99.90;;;;;;5052598;28;20466;-77
2022/10/19 11:13:27;;;;;;;6.53;4.57;;;19.20;99.90;;;;;;5053273;28;20528;-77
2022/10/19 11:15:59;;;;;;;5.80;4.77;;;19.60;99.90;;;;;;5059631;28;20455;-77
2022/10/19 11:18:30;;;;;;;5.47;5.00;;;19.70;99.90;;;;;;5057457;28;20469;-77
2022/10/19 11:21:06;;;;;;;5.23;4.67;;;19.10;99.90;;;;;;5054714;28;20850;-77
2022/10/19 11:23:51;;;;;;;4.33;4.03;;;19.30;99.90;;;;;;5055620;28;20463;-78
2022/10/19 11:26:33;;;;;;;4.90;4.50;;;19.30;99.90;;;;;;5052841;28;21151;-77
2022/10/19 11:29:11;;;;;;;4.00;3.70;;;19.20;99.90;;;;;;5061142;28;20548;-77
2022/10/19 11:31:44;;;;;;;4.20;3.90;;;19.20;99.90;;;;;;5067151;28;20501;-77
2022/10/19 11:34:35;;;;;;;4.10;3.50;;;19.30;99.90;;;;;;5068365;28;20483;-77
2022/10/19 11:37:14;;;;;;;4.93;4.53;;;19.00;99.90;;;;;;5060768;28;20460;-77
2022/10/19 11:39:49;;;;;;;4.63;4.23;;;18.80;99.90;;;;;;5067338;28;20910;-77
2022/10/19 11:42:23;;;;;;;4.73;3.97;;;18.80;99.90;;;;;;5059004;28;20518;-77
2022/10/19 11:45:05;;;;;;;4.17;3.87;;;18.30;99.90;;;;;;5049595;28;20467;-77
2022/10/19 11:47:54;;;;;;;3.63;3.33;;;18.30;99.90;;;;;;5060011;28;20927;-77
2022/10/19 11:50:29;;;;;;;3.47;3.17;;;18.30;99.90;;;;;;5055409;28;21414;-77
2022/10/19 11:53:05;;;;;;;3.97;3.57;;;18.60;99.90;;;;;;5064466;28;20461;-77
2022/10/19 11:55:39;;;;;;;4.00;3.70;;;18.90;99.90;;;;;;5059386;28;20493;-77
2022/10/19 11:58:22;;;;;;;5.83;4.70;;;19.00;99.90;;;;;;5061140;28;20962;-77
2022/10/19 12:00:56;;;;;;;4.93;4.43;;;19.20;99.90;;;;;;5061155;28;20553;-77
2022/10/19 12:03:37;;;;;;;3.80;3.50;;;19.10;99.90;;;;;;5062655;28;20786;-77
2022/10/19 12:06:11;;;;;;;5.20;4.80;;;18.90;99.90;;;;;;5057756;28;20966;-76
2022/10/19 12:08:55;;;;;;;4.30;4.00;;;18.40;99.90;;;;;;5062862;28;20487;-76
2022/10/19 12:11:30;;;;;;;5.20;4.70;;;18.00;99.90;;;;;;5054441;28;20459;-77
2022/10/19 12:14:02;;;;;;;5.13;4.27;;;17.90;99.90;;;;;;5063651;28;21109;-77
2022/10/19 12:16:36;;;;;;;4.53;3.70;;;17.90;99.90;;;;;;5056959;28;20516;-77
2022/10/19 12:19:05;;;;;;;4.60;3.43;;;17.80;99.90;;;;;;5060586;28;20455;-77
2022/10/19 12:21:36;;;;;;;3.33;3.13;;;17.80;99.90;;;;;;5054733;28;21175;-77
2022/10/19 12:24:12;;;;;;;4.57;3.93;;;17.80;99.90;;;;;;5060242;28;20835;-77
2022/10/19 12:26:40;;;;;;;3.43;3.13;;;17.80;99.90;;;;;;5060595;28;20463;-77
2022/10/19 12:29:14;;;;;;;4.73;3.80;;;17.80;99.90;;;;;;5049420;28;20505;-77
2022/10/19 12:31:42;;;;;;;3.77;3.40;;;17.90;99.90;;;;;;5049063;28;20462;-77
2022/10/19 12:34:20;;;;;;;2.37;2.20;;;17.90;99.90;;;;;;5048181;28;20536;-76
2022/10/19 12:36:52;;;;;;;5.67;4.43;;;17.90;99.90;;;;;;5053875;28;20444;-76
2022/10/19 12:39:25;;;;;;;5.47;4.53;;;18.00;99.90;;;;;;5047719;28;22226;-77
2022/10/19 12:41:57;;;;;;;5.53;4.37;;;17.90;99.90;;;;;;5057589;28;20483;-77
2022/10/19 12:44:38;;;;;;;4.60;3.90;;;18.00;99.90;;;;;;5050417;28;20464;-77
2022/10/19 12:47:11;;;;;;;5.00;4.50;;;18.10;99.90;;;;;;5044790;28;20447;-77
2022/10/19 12:49:47;;;;;;;7.73;5.90;;;17.90;99.90;;;;;;5052454;28;20467;-77
2022/10/19 12:52:17;;;;;;;7.13;5.87;;;18.00;99.90;;;;;;5054156;28;20455;-77
2022/10/19 12:54:45;;;;;;;4.57;4.23;;;17.90;99.90;;;;;;5056033;28;20444;-76
2022/10/19 12:57:27;;;;;;;7.33;6.10;;;17.90;99.90;;;;;;5057906;28;20472;-77
2022/10/19 13:00:03;;;;;;;4.40;4.03;;;18.10;99.90;;;;;;5058473;28;20588;-77